Het weer levert geen direct gevaar op.    Er zijn geen waarschuwingen afgegeven.








webcam  webcam


webcam 2   webcam 2


Onweer radar Meer informatie blitzortung!


Regen radar Meer informatie rain snow radar


Bezoek onze andere website:

Template documentation
and downloads

And another site

weerstation wsnoordbergum

weerstationlembeke



METAR rapporten vliegvelden

   
EHAM - Amsterdam
Gewijzigd: 24-10-2020 08:25
Grotendeels bewolkt  
Grotendeels bewolkt  
   Wind: Zuiden 20.4 km/h
Wind: Zuiden 20.4 km/h
Temperatuur: 12°C
Dauwpunt: 10°C
Vochtigheid: 88%
Barometer: 1009 hPa
Bewolking: Grotendeels bewolkt
Zicht: meer dan 10 km
Bewolking: Licht bewolkt 2500 ft,
Grotendeels bewolkt 4300 ft
EHAM 240625Z 19011KT 9999 FEW025 BKN043 12/10 Q1009 TEMPO 6000 DZRA SCT012 BKN016
EHRD - Rotterdam
Gewijzigd: 24-10-2020 08:25
Heavy Drizzle, Grotendeels bewolkt  
Heavy Drizzle, Grotendeels bewolkt  
   Wind: Zuiden 14.8 km/h
Wind: Zuiden 14.8 km/h
Temperatuur: 11°C
Dauwpunt: 11°C
Vochtigheid: 100%
Barometer: 1009 hPa
Bewolking: Grotendeels bewolkt
Zicht: meer dan 10 km
Bewolking: Licht bewolkt 200 ft,
Gedeeltelijk bewolkt 1000 ft,
Grotendeels bewolkt 1300 ft
EHRD 240625Z AUTO 19008KT 9999 +DZ FEW002 SCT010 BKN013 11/11 Q1009 NOSIG
EHLW - Leeuwarden
Gewijzigd: 24-10-2020 08:25
Bewolking  
Bewolking  
   Wind: ZZW 13 km/h
Wind: ZZW 13 km/h
Temperatuur: 9°C
Voelt als: 7°C
Dauwpunt: 8°C
Vochtigheid: 94%
Barometer: 1008 hPa
Bewolking: Bewolking
Zicht: meer dan 10 km
Bewolking: Bewolking 34000 ft
EHLW 240625Z AUTO 20007KT 170V230 9999 OVC340 09/08 Q1008 BLU
EHGG - Groningen
Gewijzigd: 24-10-2020 08:25
Helder  
Helder  
   Wind: ZW 20.4 km/h
Wind: ZW 20.4 km/h
Temperatuur: 11°C
Dauwpunt: 9°C
Vochtigheid: 88%
Barometer: 1009 hPa
Bewolking: Helder
Zicht: meer dan 10 km
Bewolking: Helder
EHGG 240625Z AUTO 22011KT 9999 NCD 11/09 Q1009 TEMPO 7000 -RADZ BKN012
  

Script ontwikkeld door  Saratoga-weather.org Aangepast voor de template door  Weerstation Leuven

U vindt ons ook hier:

Het Weer Aktueel

European Weather Network

WeatherCloud

Weather Underground

AWEKAS

HAMweather, WeatherForYou, PWS Weather

Apparatuur in gebruik:

Weerstation
Davis VP2

Weerprogramma
Meteobridge

Weercomputer
Asus WL -330N3G

Webleverancier
Hostnet

Davis VP2

Meteobridge

Asus WL -330N3G

Hostnet